sensor_id;sensor_type;location;lat;lon;timestamp;temperature;humidity
28189;DHT22;15471;51.166;4.470;2022-12-31T00:00:33;13.60;99.90
28189;DHT22;15471;51.166;4.470;2022-12-31T00:02:59;13.60;99.90
28189;DHT22;15471;51.166;4.470;2022-12-31T00:05:25;13.60;99.90
28189;DHT22;15471;51.166;4.470;2022-12-31T00:07:51;13.60;99.90
28189;DHT22;15471;51.166;4.470;2022-12-31T00:10:17;13.50;99.90
28189;DHT22;15471;51.166;4.470;2022-12-31T00:12:42;13.50;99.90
28189;DHT22;15471;51.166;4.470;2022-12-31T00:15:08;13.60;99.90
28189;DHT22;15471;51.166;4.470;2022-12-31T00:17:35;13.60;99.90
28189;DHT22;15471;51.166;4.470;2022-12-31T00:20:01;13.60;99.90
28189;DHT22;15471;51.166;4.470;2022-12-31T00:22:27;13.60;99.90
28189;DHT22;15471;51.166;4.470;2022-12-31T00:24:53;13.70;99.90
28189;DHT22;15471;51.166;4.470;2022-12-31T00:27:19;13.70;99.90
28189;DHT22;15471;51.166;4.470;2022-12-31T00:29:47;13.70;99.90
28189;DHT22;15471;51.166;4.470;2022-12-31T00:32:13;13.60;99.90
28189;DHT22;15471;51.166;4.470;2022-12-31T00:34:38;13.60;99.90
28189;DHT22;15471;51.166;4.470;2022-12-31T00:37:04;13.60;99.90
28189;DHT22;15471;51.166;4.470;2022-12-31T00:39:30;13.50;99.90
28189;DHT22;15471;51.166;4.470;2022-12-31T00:41:56;13.50;99.90
28189;DHT22;15471;51.166;4.470;2022-12-31T00:44:22;13.40;99.90
28189;DHT22;15471;51.166;4.470;2022-12-31T00:46:47;13.50;99.90
28189;DHT22;15471;51.166;4.470;2022-12-31T00:49:13;13.40;99.90
28189;DHT22;15471;51.166;4.470;2022-12-31T00:51:39;13.40;99.90
28189;DHT22;15471;51.166;4.470;2022-12-31T00:54:05;13.40;99.90
28189;DHT22;15471;51.166;4.470;2022-12-31T00:56:34;13.40;99.90
28189;DHT22;15471;51.166;4.470;2022-12-31T00:59:00;13.40;99.90
28189;DHT22;15471;51.166;4.470;2022-12-31T01:01:29;13.30;99.90
28189;DHT22;15471;51.166;4.470;2022-12-31T01:03:59;13.30;99.90
28189;DHT22;15471;51.166;4.470;2022-12-31T01:06:26;13.30;99.90
28189;DHT22;15471;51.166;4.470;2022-12-31T01:08:52;13.10;99.90
28189;DHT22;15471;51.166;4.470;2022-12-31T01:11:20;13.10;99.90
28189;DHT22;15471;51.166;4.470;2022-12-31T01:14:07;13.10;99.90
28189;DHT22;15471;51.166;4.470;2022-12-31T01:16:35;13.10;99.90
28189;DHT22;15471;51.166;4.470;2022-12-31T01:19:05;13.10;99.90
28189;DHT22;15471;51.166;4.470;2022-12-31T01:21:32;13.10;99.90
28189;DHT22;15471;51.166;4.470;2022-12-31T01:23:58;13.10;99.90
28189;DHT22;15471;51.166;4.470;2022-12-31T01:26:25;13.00;99.90
28189;DHT22;15471;51.166;4.470;2022-12-31T01:28:51;13.00;99.90
28189;DHT22;15471;51.166;4.470;2022-12-31T01:31:19;13.00;99.90
28189;DHT22;15471;51.166;4.470;2022-12-31T01:33:45;13.00;99.90
28189;DHT22;15471;51.166;4.470;2022-12-31T01:36:19;12.90;99.90
28189;DHT22;15471;51.166;4.470;2022-12-31T01:38:45;13.00;99.90
28189;DHT22;15471;51.166;4.470;2022-12-31T01:41:13;13.00;99.90
28189;DHT22;15471;51.166;4.470;2022-12-31T01:44:48;13.00;99.90
28189;DHT22;15471;51.166;4.470;2022-12-31T01:49:36;13.10;99.90
28189;DHT22;15471;51.166;4.470;2022-12-31T01:52:23;13.10;99.90
28189;DHT22;15471;51.166;4.470;2022-12-31T01:55:25;13.10;99.90
28189;DHT22;15471;51.166;4.470;2022-12-31T01:57:57;13.10;99.90
28189;DHT22;15471;51.166;4.470;2022-12-31T02:00:24;13.10;99.90
28189;DHT22;15471;51.166;4.470;2022-12-31T02:02:50;13.10;99.90
28189;DHT22;15471;51.166;4.470;2022-12-31T02:07:51;13.10;99.90
28189;DHT22;15471;51.166;4.470;2022-12-31T02:10:20;13.00;99.90
28189;DHT22;15471;51.166;4.470;2022-12-31T02:12:49;13.10;99.90
28189;DHT22;15471;51.166;4.470;2022-12-31T02:15:16;13.10;99.90
28189;DHT22;15471;51.166;4.470;2022-12-31T02:20:48;13.00;99.90
28189;DHT22;15471;51.166;4.470;2022-12-31T02:32:04;13.10;99.90
28189;DHT22;15471;51.166;4.470;2022-12-31T02:34:46;13.10;99.90
28189;DHT22;15471;51.166;4.470;2022-12-31T02:37:15;13.10;99.90
28189;DHT22;15471;51.166;4.470;2022-12-31T02:39:43;13.10;99.90
28189;DHT22;15471;51.166;4.470;2022-12-31T02:42:10;13.10;99.90
28189;DHT22;15471;51.166;4.470;2022-12-31T02:44:38;13.10;99.90
28189;DHT22;15471;51.166;4.470;2022-12-31T02:58:15;13.00;99.90
28189;DHT22;15471;51.166;4.470;2022-12-31T03:00:50;13.00;99.90
28189;DHT22;15471;51.166;4.470;2022-12-31T03:03:38;13.10;99.90
28189;DHT22;15471;51.166;4.470;2022-12-31T03:06:06;13.00;99.90
28189;DHT22;15471;51.166;4.470;2022-12-31T03:08:34;13.00;99.90
28189;DHT22;15471;51.166;4.470;2022-12-31T03:11:20;13.00;99.90
28189;DHT22;15471;51.166;4.470;2022-12-31T03:14:05;12.90;99.90
28189;DHT22;15471;51.166;4.470;2022-12-31T03:16:33;12.90;99.90
28189;DHT22;15471;51.166;4.470;2022-12-31T03:19:00;13.00;99.90
28189;DHT22;15471;51.166;4.470;2022-12-31T03:21:44;13.10;99.90
28189;DHT22;15471;51.166;4.470;2022-12-31T03:24:42;13.20;99.90
28189;DHT22;15471;51.166;4.470;2022-12-31T03:27:27;13.20;99.90
28189;DHT22;15471;51.166;4.470;2022-12-31T03:29:53;13.20;99.90
28189;DHT22;15471;51.166;4.470;2022-12-31T03:32:19;13.40;99.90
28189;DHT22;15471;51.166;4.470;2022-12-31T03:34:44;13.50;99.90
28189;DHT22;15471;51.166;4.470;2022-12-31T03:37:10;13.60;99.90
28189;DHT22;15471;51.166;4.470;2022-12-31T03:39:36;13.70;99.90
28189;DHT22;15471;51.166;4.470;2022-12-31T03:42:02;13.70;99.90
28189;DHT22;15471;51.166;4.470;2022-12-31T03:44:28;13.70;99.90
28189;DHT22;15471;51.166;4.470;2022-12-31T03:46:53;13.80;99.90
28189;DHT22;15471;51.166;4.470;2022-12-31T03:49:19;13.80;99.90
28189;DHT22;15471;51.166;4.470;2022-12-31T03:51:45;13.90;99.90
28189;DHT22;15471;51.166;4.470;2022-12-31T03:54:11;13.90;99.90
28189;DHT22;15471;51.166;4.470;2022-12-31T03:56:37;13.90;99.90
28189;DHT22;15471;51.166;4.470;2022-12-31T03:59:03;14.00;99.90
28189;DHT22;15471;51.166;4.470;2022-12-31T04:01:28;13.90;99.90
28189;DHT22;15471;51.166;4.470;2022-12-31T04:03:54;13.90;99.90
28189;DHT22;15471;51.166;4.470;2022-12-31T04:06:20;14.00;99.90
28189;DHT22;15471;51.166;4.470;2022-12-31T04:08:46;14.00;99.90
28189;DHT22;15471;51.166;4.470;2022-12-31T04:11:12;14.10;99.90
28189;DHT22;15471;51.166;4.470;2022-12-31T04:13:38;14.10;99.90
28189;DHT22;15471;51.166;4.470;2022-12-31T04:16:04;14.10;99.90
28189;DHT22;15471;51.166;4.470;2022-12-31T04:18:30;14.10;99.90
28189;DHT22;15471;51.166;4.470;2022-12-31T04:21:05;14.20;99.90
28189;DHT22;15471;51.166;4.470;2022-12-31T04:23:31;14.20;99.90
28189;DHT22;15471;51.166;4.470;2022-12-31T04:25:57;14.30;99.90
28189;DHT22;15471;51.166;4.470;2022-12-31T04:28:22;14.30;99.90
28189;DHT22;15471;51.166;4.470;2022-12-31T04:30:48;14.40;99.90
28189;DHT22;15471;51.166;4.470;2022-12-31T04:33:14;14.50;99.90
28189;DHT22;15471;51.166;4.470;2022-12-31T04:35:40;14.50;99.90
28189;DHT22;15471;51.166;4.470;2022-12-31T04:38:06;14.50;99.90
28189;DHT22;15471;51.166;4.470;2022-12-31T04:40:31;14.60;99.90
28189;DHT22;15471;51.166;4.470;2022-12-31T04:42:57;14.60;99.90
28189;DHT22;15471;51.166;4.470;2022-12-31T04:45:23;14.70;99.90
28189;DHT22;15471;51.166;4.470;2022-12-31T04:47:49;14.70;99.90
28189;DHT22;15471;51.166;4.470;2022-12-31T04:50:16;14.90;99.90
28189;DHT22;15471;51.166;4.470;2022-12-31T04:52:42;14.80;99.90
28189;DHT22;15471;51.166;4.470;2022-12-31T04:55:08;14.80;99.90
28189;DHT22;15471;51.166;4.470;2022-12-31T04:57:33;14.90;99.90
28189;DHT22;15471;51.166;4.470;2022-12-31T04:59:59;14.90;99.90
28189;DHT22;15471;51.166;4.470;2022-12-31T05:02:25;15.00;99.90
28189;DHT22;15471;51.166;4.470;2022-12-31T05:04:51;14.90;99.90
28189;DHT22;15471;51.166;4.470;2022-12-31T05:07:16;14.90;99.90
28189;DHT22;15471;51.166;4.470;2022-12-31T05:09:42;14.90;99.90
28189;DHT22;15471;51.166;4.470;2022-12-31T05:12:08;14.90;99.90
28189;DHT22;15471;51.166;4.470;2022-12-31T05:14:34;14.90;99.90
28189;DHT22;15471;51.166;4.470;2022-12-31T05:17:00;15.00;99.90
28189;DHT22;15471;51.166;4.470;2022-12-31T05:19:26;15.00;99.90
28189;DHT22;15471;51.166;4.470;2022-12-31T05:21:51;15.00;99.90
28189;DHT22;15471;51.166;4.470;2022-12-31T05:24:36;15.10;99.90
28189;DHT22;15471;51.166;4.470;2022-12-31T05:27:02;15.20;99.90
28189;DHT22;15471;51.166;4.470;2022-12-31T05:29:28;15.20;99.90
28189;DHT22;15471;51.166;4.470;2022-12-31T05:31:54;15.10;99.90
28189;DHT22;15471;51.166;4.470;2022-12-31T05:34:19;15.20;99.90
28189;DHT22;15471;51.166;4.470;2022-12-31T05:36:45;15.10;99.90
28189;DHT22;15471;51.166;4.470;2022-12-31T05:39:11;15.20;99.90
28189;DHT22;15471;51.166;4.470;2022-12-31T05:41:37;15.20;99.90
28189;DHT22;15471;51.166;4.470;2022-12-31T05:44:03;15.20;99.90
28189;DHT22;15471;51.166;4.470;2022-12-31T05:46:28;15.20;99.90
28189;DHT22;15471;51.166;4.470;2022-12-31T05:48:54;15.20;99.90
28189;DHT22;15471;51.166;4.470;2022-12-31T05:51:20;15.20;99.90
28189;DHT22;15471;51.166;4.470;2022-12-31T05:53:46;15.20;99.90
28189;DHT22;15471;51.166;4.470;2022-12-31T05:56:11;15.30;99.90
28189;DHT22;15471;51.166;4.470;2022-12-31T05:58:37;15.30;99.90
28189;DHT22;15471;51.166;4.470;2022-12-31T06:01:03;15.30;99.90
28189;DHT22;15471;51.166;4.470;2022-12-31T06:03:30;15.30;99.90
28189;DHT22;15471;51.166;4.470;2022-12-31T06:05:56;15.40;99.90
28189;DHT22;15471;51.166;4.470;2022-12-31T06:08:21;15.40;99.90
28189;DHT22;15471;51.166;4.470;2022-12-31T06:10:48;15.40;99.90
28189;DHT22;15471;51.166;4.470;2022-12-31T06:13:14;15.40;99.90
28189;DHT22;15471;51.166;4.470;2022-12-31T06:15:40;15.40;99.90
28189;DHT22;15471;51.166;4.470;2022-12-31T06:18:06;15.30;99.90
28189;DHT22;15471;51.166;4.470;2022-12-31T06:20:35;15.30;99.90
28189;DHT22;15471;51.166;4.470;2022-12-31T06:23:07;15.40;99.90
28189;DHT22;15471;51.166;4.470;2022-12-31T06:25:34;15.40;99.90
28189;DHT22;15471;51.166;4.470;2022-12-31T06:28:03;15.40;99.90
28189;DHT22;15471;51.166;4.470;2022-12-31T06:30:29;15.50;99.90
28189;DHT22;15471;51.166;4.470;2022-12-31T06:32:55;15.50;99.90
28189;DHT22;15471;51.166;4.470;2022-12-31T06:35:21;15.60;99.90
28189;DHT22;15471;51.166;4.470;2022-12-31T06:37:46;15.50;99.90
28189;DHT22;15471;51.166;4.470;2022-12-31T06:40:12;15.50;99.90
28189;DHT22;15471;51.166;4.470;2022-12-31T06:42:38;15.40;99.90
28189;DHT22;15471;51.166;4.470;2022-12-31T06:45:05;15.40;99.90
28189;DHT22;15471;51.166;4.470;2022-12-31T06:47:31;15.50;99.90
28189;DHT22;15471;51.166;4.470;2022-12-31T06:49:56;15.50;99.90
28189;DHT22;15471;51.166;4.470;2022-12-31T06:52:22;15.60;99.90
28189;DHT22;15471;51.166;4.470;2022-12-31T06:54:48;15.60;99.90
28189;DHT22;15471;51.166;4.470;2022-12-31T06:57:14;15.60;99.90
28189;DHT22;15471;51.166;4.470;2022-12-31T06:59:41;15.60;99.90
28189;DHT22;15471;51.166;4.470;2022-12-31T07:05:08;15.70;99.90
28189;DHT22;15471;51.166;4.470;2022-12-31T07:10:51;15.60;99.90
28189;DHT22;15471;51.166;4.470;2022-12-31T07:21:44;15.20;99.90
28189;DHT22;15471;51.166;4.470;2022-12-31T07:24:11;15.00;99.90
28189;DHT22;15471;51.166;4.470;2022-12-31T07:30:10;15.20;99.90
28189;DHT22;15471;51.166;4.470;2022-12-31T07:32:48;15.20;99.90
28189;DHT22;15471;51.166;4.470;2022-12-31T07:43:39;14.90;99.90
28189;DHT22;15471;51.166;4.470;2022-12-31T07:49:12;14.80;99.90
28189;DHT22;15471;51.166;4.470;2022-12-31T07:51:38;14.90;99.90
28189;DHT22;15471;51.166;4.470;2022-12-31T07:54:05;14.90;99.90
28189;DHT22;15471;51.166;4.470;2022-12-31T07:56:32;15.00;99.90
28189;DHT22;15471;51.166;4.470;2022-12-31T08:04:55;15.10;99.90
28189;DHT22;15471;51.166;4.470;2022-12-31T08:10:18;15.40;99.90
28189;DHT22;15471;51.166;4.470;2022-12-31T08:12:49;15.30;99.90
28189;DHT22;15471;51.166;4.470;2022-12-31T08:15:17;15.40;99.90
28189;DHT22;15471;51.166;4.470;2022-12-31T08:17:44;15.40;99.90
28189;DHT22;15471;51.166;4.470;2022-12-31T08:20:14;15.40;99.90
28189;DHT22;15471;51.166;4.470;2022-12-31T08:25:33;15.40;99.90
28189;DHT22;15471;51.166;4.470;2022-12-31T08:31:01;15.30;99.90
28189;DHT22;15471;51.166;4.470;2022-12-31T08:33:37;15.20;99.90
28189;DHT22;15471;51.166;4.470;2022-12-31T08:36:31;15.10;99.90
28189;DHT22;15471;51.166;4.470;2022-12-31T08:39:05;15.10;99.90
28189;DHT22;15471;51.166;4.470;2022-12-31T08:41:45;15.00;99.90
28189;DHT22;15471;51.166;4.470;2022-12-31T08:44:19;15.10;99.90
28189;DHT22;15471;51.166;4.470;2022-12-31T08:49:19;15.00;99.90
28189;DHT22;15471;51.166;4.470;2022-12-31T08:51:45;15.00;99.90
28189;DHT22;15471;51.166;4.470;2022-12-31T08:54:11;15.00;99.90
28189;DHT22;15471;51.166;4.470;2022-12-31T09:10:17;15.30;99.90
28189;DHT22;15471;51.166;4.470;2022-12-31T09:15:43;15.60;99.90
28189;DHT22;15471;51.166;4.470;2022-12-31T09:18:12;15.60;99.90
28189;DHT22;15471;51.166;4.470;2022-12-31T09:20:38;15.70;99.90
28189;DHT22;15471;51.166;4.470;2022-12-31T09:23:04;15.80;99.90
28189;DHT22;15471;51.166;4.470;2022-12-31T09:25:31;15.90;99.90
28189;DHT22;15471;51.166;4.470;2022-12-31T09:30:34;16.00;99.90
28189;DHT22;15471;51.166;4.470;2022-12-31T09:33:15;16.00;99.90
28189;DHT22;15471;51.166;4.470;2022-12-31T09:35:56;16.00;99.90
28189;DHT22;15471;51.166;4.470;2022-12-31T09:52:28;16.10;99.90
28189;DHT22;15471;51.166;4.470;2022-12-31T09:55:27;16.10;99.90
28189;DHT22;15471;51.166;4.470;2022-12-31T10:04:29;16.40;99.90
28189;DHT22;15471;51.166;4.470;2022-12-31T10:26:45;16.10;99.90
28189;DHT22;15471;51.166;4.470;2022-12-31T10:29:29;16.00;99.90
28189;DHT22;15471;51.166;4.470;2022-12-31T10:37:56;16.10;99.90
28189;DHT22;15471;51.166;4.470;2022-12-31T10:43:30;16.20;99.90
28189;DHT22;15471;51.166;4.470;2022-12-31T10:46:11;16.10;99.90
28189;DHT22;15471;51.166;4.470;2022-12-31T11:00:20;16.20;99.90
28189;DHT22;15471;51.166;4.470;2022-12-31T11:11:27;16.30;99.90
28189;DHT22;15471;51.166;4.470;2022-12-31T11:14:25;16.20;99.90
28189;DHT22;15471;51.166;4.470;2022-12-31T11:17:29;16.20;99.90
28189;DHT22;15471;51.166;4.470;2022-12-31T11:26:14;16.20;99.90
28189;DHT22;15471;51.166;4.470;2022-12-31T11:29:13;16.10;99.90
28189;DHT22;15471;51.166;4.470;2022-12-31T11:32:14;16.10;99.90
28189;DHT22;15471;51.166;4.470;2022-12-31T11:43:01;15.90;99.90
28189;DHT22;15471;51.166;4.470;2022-12-31T11:48:39;15.90;99.90
28189;DHT22;15471;51.166;4.470;2022-12-31T11:59:43;15.40;99.90
28189;DHT22;15471;51.166;4.470;2022-12-31T12:02:21;15.40;99.90
28189;DHT22;15471;51.166;4.470;2022-12-31T12:04:49;15.50;99.90
28189;DHT22;15471;51.166;4.470;2022-12-31T12:07:16;15.50;99.90
28189;DHT22;15471;51.166;4.470;2022-12-31T12:09:43;15.50;99.90
28189;DHT22;15471;51.166;4.470;2022-12-31T12:12:10;15.50;99.90
28189;DHT22;15471;51.166;4.470;2022-12-31T12:14:41;15.50;99.90
28189;DHT22;15471;51.166;4.470;2022-12-31T12:17:27;15.40;99.90
28189;DHT22;15471;51.166;4.470;2022-12-31T12:20:00;15.30;99.90
28189;DHT22;15471;51.166;4.470;2022-12-31T12:22:29;15.30;99.90
28189;DHT22;15471;51.166;4.470;2022-12-31T12:25:05;15.30;99.90
28189;DHT22;15471;51.166;4.470;2022-12-31T12:27:33;15.40;99.90
28189;DHT22;15471;51.166;4.470;2022-12-31T12:30:10;15.30;99.90
28189;DHT22;15471;51.166;4.470;2022-12-31T12:32:36;15.40;99.90
28189;DHT22;15471;51.166;4.470;2022-12-31T12:35:15;15.50;99.90
28189;DHT22;15471;51.166;4.470;2022-12-31T12:37:41;15.60;99.90
28189;DHT22;15471;51.166;4.470;2022-12-31T12:40:21;15.70;99.90
28189;DHT22;15471;51.166;4.470;2022-12-31T12:42:50;15.90;99.90
28189;DHT22;15471;51.166;4.470;2022-12-31T12:45:19;15.90;99.90
28189;DHT22;15471;51.166;4.470;2022-12-31T12:47:49;15.90;99.90
28189;DHT22;15471;51.166;4.470;2022-12-31T12:50:18;15.90;99.90
28189;DHT22;15471;51.166;4.470;2022-12-31T12:58:31;16.20;99.90
28189;DHT22;15471;51.166;4.470;2022-12-31T13:06:27;16.10;99.90
28189;DHT22;15471;51.166;4.470;2022-12-31T13:17:58;16.30;99.90
28189;DHT22;15471;51.166;4.470;2022-12-31T13:20:58;16.40;99.90
28189;DHT22;15471;51.166;4.470;2022-12-31T13:23:45;16.40;99.90
28189;DHT22;15471;51.166;4.470;2022-12-31T13:26:27;16.40;99.90
28189;DHT22;15471;51.166;4.470;2022-12-31T13:28:57;16.50;99.90
28189;DHT22;15471;51.166;4.470;2022-12-31T13:31:35;16.40;99.90
28189;DHT22;15471;51.166;4.470;2022-12-31T13:34:06;16.40;99.90
28189;DHT22;15471;51.166;4.470;2022-12-31T13:36:38;16.40;99.90
28189;DHT22;15471;51.166;4.470;2022-12-31T13:39:13;16.50;99.90
28189;DHT22;15471;51.166;4.470;2022-12-31T13:41:48;16.40;99.90
28189;DHT22;15471;51.166;4.470;2022-12-31T13:44:30;16.40;99.90
28189;DHT22;15471;51.166;4.470;2022-12-31T13:47:14;16.40;99.90
28189;DHT22;15471;51.166;4.470;2022-12-31T13:52:37;16.40;99.90
28189;DHT22;15471;51.166;4.470;2022-12-31T13:55:25;16.40;99.90
28189;DHT22;15471;51.166;4.470;2022-12-31T13:58:05;16.50;99.90
28189;DHT22;15471;51.166;4.470;2022-12-31T14:00:44;16.40;99.90
28189;DHT22;15471;51.166;4.470;2022-12-31T14:03:42;16.30;99.90
28189;DHT22;15471;51.166;4.470;2022-12-31T14:06:31;16.30;99.90
28189;DHT22;15471;51.166;4.470;2022-12-31T14:08:59;16.30;99.90
28189;DHT22;15471;51.166;4.470;2022-12-31T14:19:51;16.20;99.90
28189;DHT22;15471;51.166;4.470;2022-12-31T14:24:52;16.20;99.90
28189;DHT22;15471;51.166;4.470;2022-12-31T14:27:33;16.20;99.90
28189;DHT22;15471;51.166;4.470;2022-12-31T14:30:04;16.20;99.90
28189;DHT22;15471;51.166;4.470;2022-12-31T14:46:38;16.20;99.90
28189;DHT22;15471;51.166;4.470;2022-12-31T14:49:18;16.10;99.90
28189;DHT22;15471;51.166;4.470;2022-12-31T14:51:47;16.10;99.90
28189;DHT22;15471;51.166;4.470;2022-12-31T14:54:34;16.20;99.90
28189;DHT22;15471;51.166;4.470;2022-12-31T14:57:21;16.30;99.90
28189;DHT22;15471;51.166;4.470;2022-12-31T15:00:21;16.20;99.90
28189;DHT22;15471;51.166;4.470;2022-12-31T15:02:48;16.20;99.90
28189;DHT22;15471;51.166;4.470;2022-12-31T15:05:21;16.10;99.90
28189;DHT22;15471;51.166;4.470;2022-12-31T15:16:16;16.10;99.90
28189;DHT22;15471;51.166;4.470;2022-12-31T15:24:21;15.90;99.90
28189;DHT22;15471;51.166;4.470;2022-12-31T15:26:53;15.70;99.90
28189;DHT22;15471;51.166;4.470;2022-12-31T15:31:50;15.70;99.90
28189;DHT22;15471;51.166;4.470;2022-12-31T15:34:34;15.70;99.90
28189;DHT22;15471;51.166;4.470;2022-12-31T15:37:06;15.80;99.90
28189;DHT22;15471;51.166;4.470;2022-12-31T15:39:50;15.80;99.90
28189;DHT22;15471;51.166;4.470;2022-12-31T15:42:41;15.80;99.90
28189;DHT22;15471;51.166;4.470;2022-12-31T15:45:21;15.90;99.90
28189;DHT22;15471;51.166;4.470;2022-12-31T15:47:56;15.80;99.90
28189;DHT22;15471;51.166;4.470;2022-12-31T15:50:23;15.80;99.90
28189;DHT22;15471;51.166;4.470;2022-12-31T15:53:00;15.80;99.90
28189;DHT22;15471;51.166;4.470;2022-12-31T15:58:11;15.90;99.90
28189;DHT22;15471;51.166;4.470;2022-12-31T16:03:34;15.80;99.90
28189;DHT22;15471;51.166;4.470;2022-12-31T16:06:07;15.80;99.90
28189;DHT22;15471;51.166;4.470;2022-12-31T16:08:35;15.70;99.90
28189;DHT22;15471;51.166;4.470;2022-12-31T16:11:06;15.70;99.90
28189;DHT22;15471;51.166;4.470;2022-12-31T16:13:35;15.80;99.90
28189;DHT22;15471;51.166;4.470;2022-12-31T16:18:43;15.80;99.90
28189;DHT22;15471;51.166;4.470;2022-12-31T16:21:27;15.70;99.90
28189;DHT22;15471;51.166;4.470;2022-12-31T16:23:55;15.70;99.90
28189;DHT22;15471;51.166;4.470;2022-12-31T16:26:24;15.70;99.90
28189;DHT22;15471;51.166;4.470;2022-12-31T16:28:55;15.70;99.90
28189;DHT22;15471;51.166;4.470;2022-12-31T16:31:27;15.70;99.90
28189;DHT22;15471;51.166;4.470;2022-12-31T16:34:10;15.70;99.90
28189;DHT22;15471;51.166;4.470;2022-12-31T16:36:37;15.60;99.90
28189;DHT22;15471;51.166;4.470;2022-12-31T16:39:27;15.50;99.90
28189;DHT22;15471;51.166;4.470;2022-12-31T16:42:18;15.50;99.90
28189;DHT22;15471;51.166;4.470;2022-12-31T16:44:45;15.40;99.90
28189;DHT22;15471;51.166;4.470;2022-12-31T16:47:33;15.40;99.90
28189;DHT22;15471;51.166;4.470;2022-12-31T16:50:12;15.30;99.90
28189;DHT22;15471;51.166;4.470;2022-12-31T16:52:41;15.30;99.90
28189;DHT22;15471;51.166;4.470;2022-12-31T16:55:10;15.20;99.90
28189;DHT22;15471;51.166;4.470;2022-12-31T16:57:40;15.20;99.90
28189;DHT22;15471;51.166;4.470;2022-12-31T17:00:14;15.20;99.90
28189;DHT22;15471;51.166;4.470;2022-12-31T17:02:42;15.20;99.90
28189;DHT22;15471;51.166;4.470;2022-12-31T17:05:20;15.20;99.90
28189;DHT22;15471;51.166;4.470;2022-12-31T17:07:47;15.20;99.90
28189;DHT22;15471;51.166;4.470;2022-12-31T17:12:57;15.20;99.90
28189;DHT22;15471;51.166;4.470;2022-12-31T17:15:45;15.10;99.90
28189;DHT22;15471;51.166;4.470;2022-12-31T17:18:19;15.10;99.90
28189;DHT22;15471;51.166;4.470;2022-12-31T17:20:47;15.10;99.90
28189;DHT22;15471;51.166;4.470;2022-12-31T17:23:30;15.10;99.90
28189;DHT22;15471;51.166;4.470;2022-12-31T17:26:13;15.00;99.90
28189;DHT22;15471;51.166;4.470;2022-12-31T17:28:49;14.90;99.90
28189;DHT22;15471;51.166;4.470;2022-12-31T17:31:39;15.00;99.90
28189;DHT22;15471;51.166;4.470;2022-12-31T17:36:40;14.90;99.90
28189;DHT22;15471;51.166;4.470;2022-12-31T17:39:20;14.90;99.90
28189;DHT22;15471;51.166;4.470;2022-12-31T17:41:48;14.90;99.90
28189;DHT22;15471;51.166;4.470;2022-12-31T17:44:20;14.90;99.90
28189;DHT22;15471;51.166;4.470;2022-12-31T17:46:50;14.90;99.90
28189;DHT22;15471;51.166;4.470;2022-12-31T17:49:16;14.90;99.90
28189;DHT22;15471;51.166;4.470;2022-12-31T17:51:46;14.90;99.90
28189;DHT22;15471;51.166;4.470;2022-12-31T17:54:16;14.90;99.90
28189;DHT22;15471;51.166;4.470;2022-12-31T17:56:43;14.90;99.90
28189;DHT22;15471;51.166;4.470;2022-12-31T17:59:35;14.90;99.90
28189;DHT22;15471;51.166;4.470;2022-12-31T18:02:02;14.90;99.90
28189;DHT22;15471;51.166;4.470;2022-12-31T18:04:29;14.90;99.90
28189;DHT22;15471;51.166;4.470;2022-12-31T18:06:55;14.90;99.90
28189;DHT22;15471;51.166;4.470;2022-12-31T18:09:20;14.90;99.90
28189;DHT22;15471;51.166;4.470;2022-12-31T18:11:46;14.90;99.90
28189;DHT22;15471;51.166;4.470;2022-12-31T18:14:13;14.90;99.90
28189;DHT22;15471;51.166;4.470;2022-12-31T18:16:40;14.90;99.90
28189;DHT22;15471;51.166;4.470;2022-12-31T18:19:13;14.90;99.90
28189;DHT22;15471;51.166;4.470;2022-12-31T18:21:40;14.90;99.90
28189;DHT22;15471;51.166;4.470;2022-12-31T18:24:13;14.90;99.90
28189;DHT22;15471;51.166;4.470;2022-12-31T18:26:40;15.00;99.90
28189;DHT22;15471;51.166;4.470;2022-12-31T18:29:16;15.00;99.90
28189;DHT22;15471;51.166;4.470;2022-12-31T18:31:46;15.00;99.90
28189;DHT22;15471;51.166;4.470;2022-12-31T18:34:15;15.00;99.90
28189;DHT22;15471;51.166;4.470;2022-12-31T18:36:41;15.10;99.90
28189;DHT22;15471;51.166;4.470;2022-12-31T18:39:07;15.10;99.90
28189;DHT22;15471;51.166;4.470;2022-12-31T18:41:39;15.10;99.90
28189;DHT22;15471;51.166;4.470;2022-12-31T18:44:07;15.10;99.90
28189;DHT22;15471;51.166;4.470;2022-12-31T18:46:34;15.20;99.90
28189;DHT22;15471;51.166;4.470;2022-12-31T18:49:00;15.20;99.90
28189;DHT22;15471;51.166;4.470;2022-12-31T18:51:26;15.30;99.90
28189;DHT22;15471;51.166;4.470;2022-12-31T18:53:53;15.30;99.90
28189;DHT22;15471;51.166;4.470;2022-12-31T18:56:19;15.30;99.90
28189;DHT22;15471;51.166;4.470;2022-12-31T18:58:46;15.30;99.90
28189;DHT22;15471;51.166;4.470;2022-12-31T19:01:33;15.30;99.90
28189;DHT22;15471;51.166;4.470;2022-12-31T19:04:00;15.40;99.90
28189;DHT22;15471;51.166;4.470;2022-12-31T19:06:27;15.40;99.90
28189;DHT22;15471;51.166;4.470;2022-12-31T19:08:54;15.50;99.90
28189;DHT22;15471;51.166;4.470;2022-12-31T19:11:21;15.60;99.90
28189;DHT22;15471;51.166;4.470;2022-12-31T19:13:47;15.50;99.90
28189;DHT22;15471;51.166;4.470;2022-12-31T19:16:13;15.50;99.90
28189;DHT22;15471;51.166;4.470;2022-12-31T19:18:40;15.50;99.90
28189;DHT22;15471;51.166;4.470;2022-12-31T19:21:15;15.60;99.90
28189;DHT22;15471;51.166;4.470;2022-12-31T19:23:42;15.60;99.90
28189;DHT22;15471;51.166;4.470;2022-12-31T19:26:14;15.60;99.90
28189;DHT22;15471;51.166;4.470;2022-12-31T19:28:41;15.60;99.90
28189;DHT22;15471;51.166;4.470;2022-12-31T19:31:07;15.70;99.90
28189;DHT22;15471;51.166;4.470;2022-12-31T19:33:33;15.70;99.90
28189;DHT22;15471;51.166;4.470;2022-12-31T19:35:58;15.60;99.90
28189;DHT22;15471;51.166;4.470;2022-12-31T19:38:26;15.60;99.90
28189;DHT22;15471;51.166;4.470;2022-12-31T19:40:54;15.70;99.90
28189;DHT22;15471;51.166;4.470;2022-12-31T19:43:21;15.70;99.90
28189;DHT22;15471;51.166;4.470;2022-12-31T19:45:48;15.70;99.90
28189;DHT22;15471;51.166;4.470;2022-12-31T19:48:20;15.70;99.90
28189;DHT22;15471;51.166;4.470;2022-12-31T19:50:49;15.70;99.90
28189;DHT22;15471;51.166;4.470;2022-12-31T19:53:21;15.60;99.90
28189;DHT22;15471;51.166;4.470;2022-12-31T19:55:47;15.60;99.90
28189;DHT22;15471;51.166;4.470;2022-12-31T19:58:19;15.70;99.90
28189;DHT22;15471;51.166;4.470;2022-12-31T20:00:47;15.70;99.90
28189;DHT22;15471;51.166;4.470;2022-12-31T20:03:13;15.70;99.90
28189;DHT22;15471;51.166;4.470;2022-12-31T20:05:43;15.70;99.90
28189;DHT22;15471;51.166;4.470;2022-12-31T20:08:09;15.60;99.90
28189;DHT22;15471;51.166;4.470;2022-12-31T20:10:36;15.50;99.90
28189;DHT22;15471;51.166;4.470;2022-12-31T20:13:02;15.50;99.90
28189;DHT22;15471;51.166;4.470;2022-12-31T20:15:29;15.50;99.90
28189;DHT22;15471;51.166;4.470;2022-12-31T20:17:56;15.40;99.90
28189;DHT22;15471;51.166;4.470;2022-12-31T20:20:22;15.40;99.90